Time;durP1;ratioP1;P1;durP2;ratioP2;P2;SDS_P1;SDS_P2;PMS_P1;PMS_P2;Temp;Humidity;BMP_temperature;BMP_pressure;BME280_temperature;BME280_humidity;BME280_pressure;Samples;Min_cycle;Max_cycle;Signal;HPM_P1;HPM_P2
2023/10/01 00:00:34;;;;;;;12.37;3.80;;;;;;;13.10;66.42;101070.78;5089316;28;20204;-66
2023/10/01 00:03:04;;;;;;;9.17;4.03;;;;;;;13.04;66.35;101064.78;5089918;28;20295;-65
2023/10/01 00:05:32;;;;;;;7.60;4.17;;;;;;;13.02;66.31;101055.28;5091138;28;20247;-64
2023/10/01 00:08:01;;;;;;;10.90;4.63;;;;;;;13.00;66.52;101060.50;5093461;28;20720;-64
2023/10/01 00:10:30;;;;;;;10.03;4.37;;;;;;;13.00;66.95;101055.31;5086802;28;20255;-65
2023/10/01 00:12:58;;;;;;;7.73;3.77;;;;;;;13.00;66.78;101051.88;5090525;28;20224;-65
2023/10/01 00:15:29;;;;;;;7.67;4.43;;;;;;;13.01;66.66;101054.44;5088058;28;20205;-64
2023/10/01 00:17:57;;;;;;;11.03;4.07;;;;;;;13.02;66.93;101057.88;5090179;28;20228;-62
2023/10/01 00:20:28;;;;;;;8.10;4.10;;;;;;;12.97;66.35;101050.16;5077406;28;20201;-65
2023/10/01 00:23:00;;;;;;;10.43;4.00;;;;;;;12.97;66.37;101051.88;5087538;28;20209;-63
2023/10/01 00:25:30;;;;;;;6.40;3.40;;;;;;;12.97;66.86;101044.97;5088459;28;20212;-63
2023/10/01 00:28:00;;;;;;;8.30;3.50;;;;;;;12.93;66.62;101043.28;5089793;28;20204;-65
2023/10/01 00:30:31;;;;;;;9.43;3.67;;;;;;;12.92;66.22;101041.53;5088981;28;20228;-64
2023/10/01 00:33:05;;;;;;;18.40;4.87;;;;;;;12.86;66.87;101051.94;5083254;28;20222;-66
2023/10/01 00:35:33;;;;;;;10.13;4.20;;;;;;;12.79;67.10;101039.91;5081981;28;20201;-63
2023/10/01 00:38:01;;;;;;;10.37;4.10;;;;;;;12.82;67.22;101047.66;5092656;28;20651;-63
2023/10/01 00:40:31;;;;;;;8.47;3.87;;;;;;;12.83;67.21;101036.44;5091049;28;20396;-64
2023/10/01 00:42:59;;;;;;;11.57;3.80;;;;;;;12.84;66.94;101042.47;5089202;28;20703;-63
2023/10/01 00:45:27;;;;;;;8.13;3.60;;;;;;;12.83;66.73;101041.59;5092206;28;20197;-66
2023/10/01 00:47:56;;;;;;;6.53;3.87;;;;;;;12.76;67.02;101042.50;5087332;28;20328;-65
2023/10/01 00:50:25;;;;;;;12.33;3.47;;;;;;;12.66;67.28;101043.41;5084289;28;20250;-66
2023/10/01 00:52:56;;;;;;;7.10;3.43;;;;;;;12.58;67.38;101041.69;5086851;28;20617;-65
2023/10/01 00:55:24;;;;;;;7.40;3.43;;;;;;;12.60;67.55;101035.69;5083730;28;20196;-65
2023/10/01 00:57:56;;;;;;;9.60;3.50;;;;;;;12.63;67.83;101041.69;5091867;28;20264;-63
2023/10/01 01:00:25;;;;;;;9.27;3.93;;;;;;;12.67;67.45;101048.56;5083023;28;20205;-67
2023/10/01 01:03:00;;;;;;;11.33;3.60;;;;;;;12.69;67.42;101044.25;5093044;28;20192;-66
2023/10/01 01:05:34;;;;;;;7.73;3.47;;;;;;;12.73;67.53;101039.91;5088063;28;20207;-68
2023/10/01 01:08:20;;;;;;;9.30;3.73;;;;;;;12.78;67.04;101038.19;5092679;28;20204;-64
2023/10/01 01:10:50;;;;;;;9.63;3.27;;;;;;;12.78;67.24;101039.03;5085837;28;22648;-66
2023/10/01 01:13:23;;;;;;;9.00;4.00;;;;;;;12.76;67.34;101047.66;5090056;28;20205;-64
2023/10/01 01:15:52;;;;;;;9.10;3.90;;;;;;;12.78;67.28;101043.38;5096564;28;20511;-65
2023/10/01 01:18:21;;;;;;;11.87;3.83;;;;;;;12.73;66.66;101029.56;5091152;28;20618;-64
2023/10/01 01:20:57;;;;;;;8.33;3.63;;;;;;;12.76;67.09;101034.75;5087420;28;20213;-65
2023/10/01 01:23:30;;;;;;;6.93;3.80;;;;;;;12.72;67.43;101038.22;5091012;28;20191;-64
2023/10/01 01:25:59;;;;;;;11.03;3.70;;;;;;;12.67;67.08;101042.56;5091398;28;20659;-65
2023/10/01 01:28:30;;;;;;;9.20;4.20;;;;;;;12.67;67.37;101050.31;5082944;28;20276;-65
2023/10/01 01:31:00;;;;;;;7.97;3.97;;;;;;;12.61;67.11;101039.97;5094538;28;20311;-68
2023/10/01 01:33:31;;;;;;;10.07;3.70;;;;;;;12.60;67.69;101039.13;5084911;28;20608;-63
2023/10/01 01:36:03;;;;;;;11.07;3.93;;;;;;;12.61;67.98;101037.41;5084501;28;20232;-63
2023/10/01 01:38:33;;;;;;;8.50;3.17;;;;;;;12.56;67.33;101038.28;5086674;28;20675;-64
2023/10/01 01:41:03;;;;;;;14.60;4.13;;;;;;;12.53;67.33;101027.09;5097908;28;20216;-65
2023/10/01 01:43:31;;;;;;;7.63;3.93;;;;;;;12.49;67.97;101025.38;5090309;28;20422;-63
2023/10/01 01:46:03;;;;;;;7.20;3.90;;;;;;;12.51;68.00;101021.03;5089893;28;20304;-63
2023/10/01 01:48:33;;;;;;;7.17;3.67;;;;;;;12.49;67.96;101015.91;5089463;28;20207;-65
2023/10/01 01:51:03;;;;;;;14.30;4.10;;;;;;;12.50;68.20;101011.59;5087311;28;20204;-66
2023/10/01 01:53:35;;;;;;;7.53;3.37;;;;;;;12.46;68.09;101008.16;5084591;28;20217;-67
2023/10/01 01:56:08;;;;;;;7.87;3.80;;;;;;;12.47;68.33;101017.63;5092687;28;20193;-66
2023/10/01 01:58:37;;;;;;;9.13;3.97;;;;;;;12.43;67.91;101021.06;5091921;28;20197;-65
2023/10/01 02:01:23;;;;;;;7.63;3.57;;;;;;;12.36;68.30;101023.69;5090527;28;20293;-65
2023/10/01 02:03:53;;;;;;;12.60;3.40;;;;;;;12.31;68.53;101015.97;5085000;28;20232;-64
2023/10/01 02:06:32;;;;;;;7.87;3.63;;;;;;;12.31;68.56;101011.66;5078220;28;20209;-68
2023/10/01 02:09:12;;;;;;;11.37;3.83;;;;;;;12.36;68.79;101016.78;5077262;28;20200;-65
2023/10/01 02:11:40;;;;;;;7.33;3.40;;;;;;;12.39;68.64;101009.03;5087828;28;20282;-65
2023/10/01 02:14:29;;;;;;;11.50;3.63;;;;;;;12.43;68.56;101013.31;5080921;28;20201;-64
2023/10/01 02:17:05;;;;;;;6.43;3.30;;;;;;;12.47;68.43;101017.63;5090659;28;20238;-65
2023/10/01 02:19:35;;;;;;;8.93;3.90;;;;;;;12.37;68.44;101018.53;5097033;28;20560;-67
2023/10/01 02:22:05;;;;;;;8.60;3.80;;;;;;;12.36;68.80;101021.97;5087978;28;20197;-65
2023/10/01 02:24:54;;;;;;;6.63;3.20;;;;;;;12.32;68.76;101015.09;5095688;28;20209;-65
2023/10/01 02:27:26;;;;;;;11.07;3.73;;;;;;;12.26;68.99;101009.94;5089087;28;20201;-66
2023/10/01 02:30:14;;;;;;;9.90;4.30;;;;;;;12.22;68.84;101009.06;5094061;28;20193;-63
2023/10/01 02:33:15;;;;;;;9.03;3.87;;;;;;;12.16;69.32;101008.25;5088210;28;20209;-65
2023/10/01 02:35:41;;;;;;;9.20;4.03;;;;;;;12.18;69.54;101012.53;5089461;28;20648;-64
2023/10/01 02:38:36;;;;;;;11.53;4.40;;;;;;;12.21;69.24;101019.44;5091676;28;20659;-65
2023/10/01 02:41:01;;;;;;;10.07;4.20;;;;;;;12.20;69.21;101016.00;5096888;28;20209;-69
2023/10/01 02:43:33;;;;;;;11.57;4.73;;;;;;;12.16;68.98;101016.00;5091224;28;20207;-65
2023/10/01 02:46:07;;;;;;;12.07;4.23;;;;;;;12.17;69.26;101020.31;5091703;28;20207;-65
2023/10/01 02:48:34;;;;;;;10.50;4.03;;;;;;;12.08;69.29;101014.31;5095657;28;20651;-65
2023/10/01 02:51:15;;;;;;;9.07;4.03;;;;;;;12.03;69.58;101017.75;5084097;28;20259;-64
2023/10/01 02:54:00;;;;;;;6.40;3.80;;;;;;;12.04;69.96;101007.44;5095897;28;20228;-67
2023/10/01 02:56:32;;;;;;;7.43;3.80;;;;;;;12.03;69.73;101013.44;5090336;28;20664;-66
2023/10/01 02:59:08;;;;;;;9.47;3.87;;;;;;;12.01;70.01;101011.72;5093521;28;20208;-66
2023/10/01 03:01:38;;;;;;;8.70;4.23;;;;;;;11.96;70.27;101019.47;5083228;28;20209;-65
2023/10/01 03:04:10;;;;;;;7.30;3.63;;;;;;;11.97;70.01;101017.78;5093867;28;20195;-66
2023/10/01 03:06:47;;;;;;;7.33;3.43;;;;;;;11.96;69.89;101014.31;5092983;28;20208;-68
2023/10/01 03:09:31;;;;;;;9.43;3.70;;;;;;;11.98;70.00;101009.16;5094625;28;20243;-65
2023/10/01 03:15:15;;;;;;;8.83;4.23;;;;;;;11.95;70.24;101002.25;5090525;28;20200;-69
2023/10/01 03:17:55;;;;;;;8.97;3.87;;;;;;;11.89;70.63;100999.69;5084845;28;20269;-64
2023/10/01 03:23:25;;;;;;;8.53;3.90;;;;;;;11.99;70.20;101009.13;5091008;28;20200;-65
2023/10/01 03:26:00;;;;;;;7.07;3.57;;;;;;;11.95;70.50;101002.25;5085029;28;20682;-69
2023/10/01 03:28:35;;;;;;;10.67;3.23;;;;;;;11.95;70.20;100999.69;5089075;28;20204;-65
2023/10/01 03:31:08;;;;;;;8.37;3.83;;;;;;;11.95;70.49;100994.50;5087259;28;20263;-65
2023/10/01 03:33:38;;;;;;;10.40;3.63;;;;;;;11.86;70.61;101002.28;5088944;28;20303;-64
2023/10/01 03:36:10;;;;;;;9.67;4.00;;;;;;;11.83;70.89;101002.25;5093223;28;20216;-65
2023/10/01 03:38:39;;;;;;;9.23;3.43;;;;;;;11.78;70.99;101006.53;5091979;28;20200;-64
2023/10/01 03:41:08;;;;;;;6.67;3.67;;;;;;;11.84;71.28;101010.03;5096016;28;20719;-66
2023/10/01 03:43:38;;;;;;;9.43;3.33;;;;;;;11.88;70.91;101000.56;5092456;28;20659;-63
2023/10/01 03:46:13;;;;;;;6.43;3.13;;;;;;;11.90;71.26;101004.00;5091992;28;20209;-66
2023/10/01 03:54:15;;;;;;;9.10;3.57;;;;;;;11.98;70.68;100999.69;5072602;28;20243;-64
2023/10/01 03:56:47;;;;;;;11.43;3.90;;;;;;;12.02;70.13;100996.22;5093492;28;20703;-66
2023/10/01 03:59:17;;;;;;;6.27;3.30;;;;;;;12.03;70.38;100997.06;5090829;28;20228;-66
2023/10/01 04:01:59;;;;;;;8.57;3.20;;;;;;;12.01;70.30;101001.41;5088990;28;20208;-66
2023/10/01 04:04:29;;;;;;;11.20;3.87;;;;;;;11.95;71.00;101006.56;5078094;28;20201;-65
2023/10/01 04:07:00;;;;;;;7.93;3.80;;;;;;;11.97;71.19;101007.44;5090195;28;20200;-66
2023/10/01 04:09:28;;;;;;;9.57;3.10;;;;;;;11.96;70.78;101009.13;5090662;28;20287;-65
2023/10/01 04:12:18;;;;;;;4.70;2.87;;;;;;;12.01;70.98;101015.16;5094750;28;20200;-65
2023/10/01 04:14:49;;;;;;;7.77;3.37;;;;;;;12.08;71.01;101022.06;5083543;28;20201;-65
2023/10/01 04:17:18;;;;;;;11.43;3.43;;;;;;;12.07;70.65;101012.56;5083191;28;20204;-64
2023/10/01 04:19:49;;;;;;;5.13;3.03;;;;;;;12.14;70.46;101002.22;5099674;28;20211;-65
2023/10/01 04:22:21;;;;;;;9.47;3.27;;;;;;;12.20;70.27;101002.22;5104599;28;20297;-65
2023/10/01 04:25:00;;;;;;;6.57;3.40;;;;;;;12.19;70.19;101005.66;5084283;28;20189;-65
2023/10/01 04:27:30;;;;;;;7.00;3.20;;;;;;;12.18;70.35;101003.94;5101009;28;20204;-67
2023/10/01 04:30:00;;;;;;;9.13;3.23;;;;;;;12.19;70.49;101003.09;5087356;28;20215;-66
2023/10/01 04:32:29;;;;;;;8.07;3.53;;;;;;;12.22;70.25;101000.47;5085082;28;20221;-65
2023/10/01 04:34:59;;;;;;;10.57;3.07;;;;;;;12.17;69.96;101010.81;5080864;28;20647;-67
2023/10/01 04:37:37;;;;;;;9.77;2.90;;;;;;;12.12;70.43;101003.97;5088134;28;20193;-65
2023/10/01 04:40:31;;;;;;;7.27;2.90;;;;;;;12.11;70.41;101004.81;5076223;28;20927;-67
2023/10/01 04:42:56;;;;;;;8.00;3.10;;;;;;;12.07;71.00;101002.22;5087269;28;20240;-66
2023/10/01 04:45:36;;;;;;;9.60;3.40;;;;;;;12.12;71.03;101003.97;5086353;28;20200;-66
2023/10/01 04:48:15;;;;;;;9.13;3.20;;;;;;;12.12;70.42;100994.50;5094432;28;20213;-68
2023/10/01 04:50:44;;;;;;;8.60;3.40;;;;;;;12.09;70.71;100984.16;5084881;28;20211;-66
2023/10/01 04:53:13;;;;;;;7.23;2.97;;;;;;;12.11;70.59;100984.13;5081144;28;20591;-66
2023/10/01 04:55:43;;;;;;;7.73;3.20;;;;;;;12.08;70.69;100974.69;5084732;28;20228;-66
2023/10/01 04:58:14;;;;;;;8.47;3.57;;;;;;;12.08;70.80;100983.31;5082994;28;20705;-63
2023/10/01 05:00:45;;;;;;;7.60;3.47;;;;;;;12.11;70.98;100982.41;5087420;28;20200;-65
2023/10/01 05:03:15;;;;;;;7.00;2.63;;;;;;;12.09;70.68;100982.44;5090194;28;20207;-67
2023/10/01 05:05:44;;;;;;;6.57;3.07;;;;;;;12.13;70.91;100992.75;5086183;28;20207;-66
2023/10/01 05:08:13;;;;;;;6.73;2.90;;;;;;;12.13;71.12;101005.69;5090085;28;20648;-64
2023/10/01 05:10:56;;;;;;;9.33;3.13;;;;;;;12.07;71.02;100994.47;5086731;28;20660;-65
2023/10/01 05:13:24;;;;;;;6.23;3.07;;;;;;;12.01;71.57;100994.50;5098277;28;20711;-68
2023/10/01 05:15:56;;;;;;;7.20;2.70;;;;;;;12.06;71.40;100994.50;5090191;28;20236;-65
2023/10/01 05:18:27;;;;;;;7.13;2.80;;;;;;;12.06;71.65;100987.59;5085098;28;20326;-68
2023/10/01 05:20:58;;;;;;;13.07;3.30;;;;;;;12.06;71.38;100984.16;5078957;28;20713;-65
2023/10/01 05:23:26;;;;;;;9.27;2.83;;;;;;;12.06;71.57;100986.75;5087621;28;20207;-72
2023/10/01 05:25:56;;;;;;;6.07;2.90;;;;;;;12.07;71.32;100991.88;5100083;28;20196;-66
2023/10/01 05:28:31;;;;;;;6.37;3.23;;;;;;;12.14;71.54;100991.88;5089968;28;20659;-68
2023/10/01 05:31:05;;;;;;;7.10;2.80;;;;;;;12.18;71.30;100997.03;5084010;28;20220;-68
2023/10/01 05:33:34;;;;;;;4.53;2.57;;;;;;;12.23;71.07;101007.38;5103143;28;20220;-67
2023/10/01 05:36:05;;;;;;;8.03;3.27;;;;;;;12.24;71.54;101009.09;5089906;28;20628;-67
2023/10/01 05:38:34;;;;;;;7.53;2.70;;;;;;;12.27;71.25;101003.91;5091432;28;20714;-68
2023/10/01 05:41:04;;;;;;;5.20;2.77;;;;;;;12.33;71.36;101009.03;5084300;28;20201;-66
2023/10/01 05:43:37;;;;;;;9.00;2.93;;;;;;;12.39;70.87;101014.19;5074148;28;20208;-65
2023/10/01 05:46:09;;;;;;;7.47;3.00;;;;;;;12.43;70.97;101012.47;5094622;28;20246;-66
2023/10/01 05:48:39;;;;;;;9.20;2.97;;;;;;;12.43;70.58;101004.72;5092340;28;20230;-67
2023/10/01 05:51:11;;;;;;;7.43;2.67;;;;;;;12.46;70.84;101004.72;5089081;28;20193;-65
2023/10/01 05:53:40;;;;;;;7.30;2.77;;;;;;;12.49;70.47;101010.72;5090597;28;20254;-69
2023/10/01 05:56:10;;;;;;;7.43;3.70;;;;;;;12.52;70.64;101007.28;5084313;28;20557;-65
2023/10/01 05:58:39;;;;;;;7.43;3.33;;;;;;;12.58;70.46;101008.09;5084887;28;20234;-66
2023/10/01 06:01:14;;;;;;;8.50;3.27;;;;;;;12.60;69.95;101008.09;5084861;28;20204;-65
2023/10/01 06:03:44;;;;;;;7.03;3.20;;;;;;;12.59;70.22;101014.13;5086670;28;20218;-66
2023/10/01 06:06:14;;;;;;;6.90;2.70;;;;;;;12.57;70.31;101010.69;5085595;28;20201;-66
2023/10/01 06:08:46;;;;;;;7.77;3.03;;;;;;;12.62;70.77;101013.25;5097014;28;20227;-68
2023/10/01 06:11:16;;;;;;;7.80;3.07;;;;;;;12.69;70.87;101013.22;5096073;28;20199;-67
2023/10/01 06:13:51;;;;;;;9.80;2.50;;;;;;;12.77;70.42;101015.75;5095837;28;20547;-66
2023/10/01 06:16:25;;;;;;;8.50;3.20;;;;;;;12.81;69.60;101015.75;5095724;28;20246;-65
2023/10/01 06:18:56;;;;;;;6.67;2.50;;;;;;;12.79;69.88;101011.44;5091367;28;20256;-69
2023/10/01 06:21:27;;;;;;;9.13;3.00;;;;;;;12.82;70.15;101019.19;5092533;28;20952;-69
2023/10/01 06:23:58;;;;;;;5.60;2.53;;;;;;;12.89;69.97;101015.72;5099565;28;20188;-67
2023/10/01 06:26:33;;;;;;;7.73;3.10;;;;;;;12.90;69.23;101004.50;5090116;28;20215;-66
2023/10/01 06:29:02;;;;;;;6.83;2.80;;;;;;;12.93;69.26;101013.97;5088851;28;21118;-65
2023/10/01 06:31:47;;;;;;;7.87;2.80;;;;;;;12.94;69.67;101013.94;5085769;28;20227;-66
2023/10/01 06:34:19;;;;;;;4.37;2.43;;;;;;;12.95;69.82;101020.84;5090831;28;20220;-67
2023/10/01 06:36:56;;;;;;;6.10;2.73;;;;;;;13.00;69.93;101024.28;5083391;28;20205;-65
2023/10/01 06:39:24;;;;;;;7.87;3.17;;;;;;;13.03;69.82;101023.38;5094159;28;20639;-65
2023/10/01 06:41:53;;;;;;;7.93;3.03;;;;;;;13.07;69.52;101032.88;5089726;28;20228;-66
2023/10/01 06:44:21;;;;;;;9.83;2.90;;;;;;;13.12;69.57;101030.25;5105733;28;20236;-67
2023/10/01 06:46:52;;;;;;;9.73;2.73;;;;;;;13.10;69.36;101027.66;5093717;28;20205;-68
2023/10/01 06:49:20;;;;;;;11.07;4.07;;;;;;;13.07;69.49;101017.34;5090748;28;20659;-68
2023/10/01 06:51:50;;;;;;;7.03;3.13;;;;;;;13.08;69.05;101023.38;5086331;28;20570;-70
2023/10/01 06:54:19;;;;;;;8.50;2.93;;;;;;;13.10;69.47;101034.56;5093126;28;20212;-69
2023/10/01 06:56:47;;;;;;;7.87;3.53;;;;;;;13.14;69.30;101025.91;5091062;28;20644;-67
2023/10/01 06:59:17;;;;;;;8.23;2.80;;;;;;;13.19;69.18;101024.16;5085797;28;20576;-69
2023/10/01 07:01:50;;;;;;;8.97;3.47;;;;;;;13.24;69.39;101023.28;5089243;28;20224;-69
2023/10/01 07:04:23;;;;;;;5.60;2.90;;;;;;;13.30;68.88;101022.38;5099636;28;20279;-67
2023/10/01 07:06:53;;;;;;;8.20;2.80;;;;;;;13.29;69.03;101006.00;5093919;28;20274;-71
2023/10/01 07:09:27;;;;;;;6.63;2.93;;;;;;;13.38;68.97;101009.38;5079349;28;20266;-72
2023/10/01 07:11:57;;;;;;;8.10;2.90;;;;;;;13.42;68.38;101014.53;5093947;28;20604;-71
2023/10/01 07:14:38;;;;;;;6.77;2.80;;;;;;;13.44;68.58;101015.38;5092472;28;20230;-71
2023/10/01 07:17:09;;;;;;;7.73;3.07;;;;;;;13.47;68.41;101007.56;5090762;28;20255;-71
2023/10/01 07:19:40;;;;;;;9.33;3.30;;;;;;;13.50;68.65;101015.31;5082523;28;20196;-71
2023/10/01 07:22:09;;;;;;;11.03;3.10;;;;;;;13.56;68.51;101018.75;5083788;28;20246;-73
2023/10/01 07:24:38;;;;;;;7.73;3.03;;;;;;;13.64;68.02;101011.75;5103277;28;20204;-73
2023/10/01 07:27:07;;;;;;;8.50;3.00;;;;;;;13.77;68.13;101016.81;5091725;28;20200;-72
2023/10/01 07:29:36;;;;;;;10.03;3.10;;;;;;;14.03;67.50;101015.72;5081580;28;20556;-73
2023/10/01 07:32:07;;;;;;;7.17;3.17;;;;;;;14.38;66.88;101012.72;5094345;28;20207;-72
2023/10/01 07:34:39;;;;;;;6.83;3.10;;;;;;;14.58;65.64;101011.66;5093157;28;20262;-73
2023/10/01 07:37:09;;;;;;;8.20;2.90;;;;;;;14.69;64.21;101007.19;5095584;28;20201;-71
2023/10/01 07:39:40;;;;;;;7.43;2.80;;;;;;;14.88;63.98;101019.06;5089884;28;20565;-73
2023/10/01 07:42:10;;;;;;;7.37;3.43;;;;;;;14.98;63.27;101010.28;5091213;28;20253;-73
2023/10/01 07:44:39;;;;;;;7.97;3.00;;;;;;;15.11;62.98;101010.09;5088689;28;20242;-72
2023/10/01 07:47:07;;;;;;;9.10;3.23;;;;;;;15.12;62.29;101016.97;5090470;28;20196;-73
2023/10/01 07:49:51;;;;;;;8.87;2.53;;;;;;;15.02;62.57;101012.78;5093618;28;20546;-74
2023/10/01 07:52:20;;;;;;;7.63;2.73;;;;;;;14.91;63.01;101013.81;5088523;28;20706;-73
2023/10/01 07:54:49;;;;;;;7.00;2.97;;;;;;;14.95;63.23;101010.31;5093299;28;20284;-72
2023/10/01 07:57:26;;;;;;;8.47;2.97;;;;;;;15.08;63.38;101015.31;5096840;28;20549;-72
2023/10/01 07:59:56;;;;;;;6.67;2.97;;;;;;;15.20;62.51;101015.13;5095877;28;20679;-76
2023/10/01 08:02:28;;;;;;;7.10;2.70;;;;;;;15.34;62.02;101018.38;5087237;28;20598;-76
2023/10/01 08:04:58;;;;;;;8.37;3.23;;;;;;;15.49;61.74;101019.00;5083938;28;20202;-73
2023/10/01 08:07:39;;;;;;;8.47;2.70;;;;;;;15.46;60.96;101012.13;5085689;28;20214;-73
2023/10/01 08:10:17;;;;;;;5.13;2.50;;;;;;;15.40;61.22;101020.03;5072757;28;20201;-76
2023/10/01 08:15:38;;;;;;;7.57;3.07;;;;;;;15.35;61.90;101016.63;5082031;28;20228;-78
2023/10/01 08:20:58;;;;;;;6.10;2.17;;;;;;;15.61;61.86;101009.28;5093564;28;20565;-74
2023/10/01 08:23:31;;;;;;;11.47;2.93;;;;;;;15.57;61.15;101014.53;5066883;28;20707;-78
2023/10/01 08:26:39;;;;;;;7.17;2.67;;;;;;;15.54;61.52;101017.19;5086662;28;20276;-76
2023/10/01 08:28:57;;;;;;;9.73;2.85;;;;;;;15.41;61.61;101019.13;5087855;28;20203;-76
2023/10/01 08:32:08;;;;;;;6.30;2.80;;;;;;;15.33;62.37;101011.47;5092893;28;20753;-77
2023/10/01 08:35:01;;;;;;;7.38;2.80;;;;;;;15.28;62.55;101018.47;5086968;28;20215;-76
2023/10/01 08:37:23;;;;;;;4.57;2.58;;;;;;;15.27;62.70;101011.56;5090644;28;20208;-75
2023/10/01 08:39:53;;;;;;;8.17;3.70;;;;;;;15.25;63.15;101015.94;5092507;28;20222;-77
2023/10/01 08:42:28;;;;;;;10.38;3.30;;;;;;;15.23;63.39;101012.47;5090381;28;20240;-75
2023/10/01 08:45:03;;;;;;;4.87;2.30;;;;;;;15.30;63.29;101014.09;5083724;28;20698;-76
2023/10/01 08:47:34;;;;;;;8.98;3.00;;;;;;;15.41;63.29;101008.75;5092913;28;20214;-76
2023/10/01 08:50:26;;;;;;;4.72;2.63;;;;;;;15.55;63.07;101000.72;5091381;28;20293;-76
2023/10/01 08:52:57;;;;;;;6.13;2.40;;;;;;;15.67;61.27;101011.78;5088073;28;20208;-75
2023/10/01 08:55:39;;;;;;;6.78;2.75;;;;;;;15.54;62.11;101014.59;5092202;28;20648;-75
2023/10/01 09:00:56;;;;;;;7.97;2.87;;;;;;;15.64;62.29;101016.16;5080787;28;20204;-73
2023/10/01 09:03:30;;;;;;;4.30;2.23;;;;;;;15.65;62.00;101010.97;5092574;28;20340;-73
2023/10/01 09:06:04;;;;;;;7.10;3.30;;;;;;;15.66;62.30;101015.28;5097912;28;20615;-75
2023/10/01 09:08:42;;;;;;;9.70;3.10;;;;;;;15.75;62.63;101016.84;5081528;28;20200;-76
2023/10/01 09:11:14;;;;;;;5.15;2.63;;;;;;;15.87;62.14;101018.38;5084238;28;20197;-76
2023/10/01 09:13:46;;;;;;;7.47;3.28;;;;;;;15.91;61.73;101020.91;5084441;28;20836;-81
2023/10/01 09:16:16;;;;;;;8.88;2.58;;;;;;;15.85;61.56;101023.63;5087112;28;20216;-74
2023/10/01 09:19:05;;;;;;;9.40;2.65;;;;;;;15.84;61.93;101034.06;5090013;28;20626;-77
2023/10/01 09:21:38;;;;;;;5.40;3.08;;;;;;;15.83;61.63;101035.78;5098524;28;20231;-76
2023/10/01 09:24:34;;;;;;;6.13;2.40;;;;;;;15.97;61.70;101030.34;5091362;28;20569;-77
2023/10/01 09:27:18;;;;;;;8.23;2.80;;;;;;;15.97;61.21;101025.13;5084628;28;20201;-76
2023/10/01 09:29:57;;;;;;;7.30;3.00;;;;;;;15.99;61.27;101030.31;5086603;28;20288;-78
2023/10/01 09:32:50;;;;;;;5.97;3.03;;;;;;;15.97;61.13;101037.28;5086024;28;20196;-75
2023/10/01 09:35:30;;;;;;;5.20;2.90;;;;;;;15.91;61.37;101033.91;5091158;28;20227;-80
2023/10/01 09:38:10;;;;;;;6.85;2.58;;;;;;;15.95;61.52;101032.13;5109612;28;20603;-76
2023/10/01 09:40:41;;;;;;;9.30;2.83;;;;;;;16.10;61.32;101028.38;5091516;28;20308;-76
2023/10/01 09:43:19;;;;;;;5.82;3.05;;;;;;;16.27;60.54;101028.91;5091921;28;20305;-74
2023/10/01 09:45:49;;;;;;;5.22;2.78;;;;;;;16.39;60.36;101033.03;5090341;28;20206;-75
2023/10/01 09:48:30;;;;;;;5.00;2.42;;;;;;;16.55;59.76;101033.56;5062847;28;20698;-73
2023/10/01 09:51:07;;;;;;;9.00;3.13;;;;;;;16.72;59.40;101030.63;5088294;28;20200;-73
2023/10/01 09:53:44;;;;;;;5.30;2.63;;;;;;;16.87;58.70;101031.19;5087644;28;20211;-72
2023/10/01 09:56:14;;;;;;;6.82;2.53;;;;;;;16.94;58.15;101026.72;5091332;28;20242;-73
2023/10/01 09:58:46;;;;;;;10.02;2.95;;;;;;;16.96;58.21;101029.25;5098705;28;20200;-71
2023/10/01 10:01:17;;;;;;;7.25;2.65;;;;;;;17.05;58.18;101023.88;5090025;28;20205;-71
2023/10/01 10:03:54;;;;;;;5.90;2.58;;;;;;;17.17;57.99;101020.13;5084637;28;20579;-71
2023/10/01 10:06:24;;;;;;;5.85;2.40;;;;;;;17.36;57.61;101024.84;5088232;28;20662;-73
2023/10/01 10:09:03;;;;;;;12.25;2.83;;;;;;;17.45;56.40;101015.09;5088241;28;20596;-74
2023/10/01 10:11:36;;;;;;;7.10;2.60;;;;;;;17.49;55.96;101016.72;5084556;28;20291;-71
2023/10/01 10:14:44;;;;;;;6.32;2.30;;;;;;;17.55;56.37;101013.97;5078964;28;20221;-73
2023/10/01 10:17:25;;;;;;;6.20;2.05;;;;;;;17.68;55.67;101015.41;5091711;28;20220;-74
2023/10/01 10:20:15;;;;;;;9.30;2.63;;;;;;;17.81;55.86;101010.75;5091190;28;20204;-72
2023/10/01 10:23:13;;;;;;;9.77;2.78;;;;;;;17.91;55.19;101006.16;5092994;28;20286;-71
2023/10/01 10:25:44;;;;;;;6.28;2.40;;;;;;;17.90;54.78;101004.44;5087907;28;20726;-72
2023/10/01 10:28:24;;;;;;;5.97;2.40;;;;;;;17.85;55.35;101005.41;5082845;28;20201;-72
2023/10/01 10:31:29;;;;;;;4.70;2.40;;;;;;;17.83;55.24;101009.81;5090884;28;20307;-71
2023/10/01 10:34:25;;;;;;;8.55;2.30;;;;;;;17.76;55.29;101007.41;5087251;28;20212;-71
2023/10/01 10:36:54;;;;;;;5.75;2.65;;;;;;;17.81;55.28;101006.38;5082492;28;20548;-72
2023/10/01 10:40:12;;;;;;;3.45;1.75;;;;;;;17.81;54.96;100993.34;5087764;28;20234;-72
2023/10/01 10:42:42;;;;;;;3.70;1.75;;;;;;;17.89;54.60;100992.28;5078269;28;20298;-70
2023/10/01 10:45:23;;;;;;;3.72;1.70;;;;;;;18.02;54.22;100994.53;5090923;28;20197;-75
2023/10/01 10:47:59;;;;;;;3.78;1.55;;;;;;;18.26;53.72;100986.91;5088264;28;20637;-73
2023/10/01 10:50:48;;;;;;;8.20;1.67;;;;;;;18.46;52.17;100983.75;5082111;28;20306;-70
2023/10/01 10:53:17;;;;;;;6.53;1.85;;;;;;;18.51;51.90;100989.69;5096201;28;20201;-71
2023/10/01 10:56:04;;;;;;;4.57;2.10;;;;;;;18.57;50.97;100992.97;5080329;28;20294;-72
2023/10/01 10:58:37;;;;;;;4.13;1.63;;;;;;;18.70;50.56;100985.59;5084712;28;20228;-73
2023/10/01 11:01:16;;;;;;;2.85;1.30;;;;;;;18.86;50.29;100979.97;5087580;28;20219;-70
2023/10/01 11:03:48;;;;;;;4.15;1.67;;;;;;;18.93;48.38;100977.13;5084347;28;20235;-72
2023/10/01 11:06:22;;;;;;;6.32;1.90;;;;;;;19.04;47.85;100987.25;5100728;28;20224;-73
2023/10/01 11:08:51;;;;;;;6.65;2.58;;;;;;;19.00;48.04;100985.59;5094454;28;20704;-73
2023/10/01 11:11:28;;;;;;;5.57;1.50;;;;;;;19.12;47.85;100980.00;5088082;28;20275;-71
2023/10/01 11:14:15;;;;;;;4.22;1.58;;;;;;;19.23;47.75;100977.91;5093417;28;20222;-71
2023/10/01 11:16:47;;;;;;;3.90;1.67;;;;;;;19.21;46.73;100969.25;5091113;28;20212;-71
2023/10/01 11:19:17;;;;;;;4.55;1.73;;;;;;;19.26;47.49;100971.72;5094305;28;20593;-71
2023/10/01 11:21:56;;;;;;;5.55;1.55;;;;;;;19.48;47.71;100971.88;5097319;28;20635;-71
2023/10/01 11:24:29;;;;;;;3.67;1.40;;;;;;;19.68;46.90;100969.47;5094079;28;20193;-69
2023/10/01 11:27:22;;;;;;;4.55;1.50;;;;;;;19.93;46.41;100969.47;5095242;28;20266;-72
2023/10/01 11:30:12;;;;;;;4.93;1.83;;;;;;;20.12;45.33;100969.66;5090913;28;20220;-69
2023/10/01 11:33:12;;;;;;;3.47;1.42;;;;;;;20.13;45.83;100966.09;5083907;28;20204;-70
2023/10/01 11:35:59;;;;;;;3.05;1.65;;;;;;;20.02;45.55;100968.25;5081195;28;20281;-69
2023/10/01 11:38:32;;;;;;;4.35;1.83;;;;;;;19.81;45.45;100954.22;5085871;28;20631;-70
2023/10/01 11:41:07;;;;;;;7.88;1.90;;;;;;;19.65;45.53;100955.63;5093192;28;20287;-70
2023/10/01 11:43:41;;;;;;;5.68;1.98;;;;;;;19.48;45.84;100956.19;5088024;28;20262;-73
2023/10/01 11:46:29;;;;;;;4.20;1.63;;;;;;;19.33;46.29;100952.34;5092679;28;20197;-71
2023/10/01 11:49:02;;;;;;;4.38;1.60;;;;;;;19.30;46.58;100944.59;5089665;28;20560;-70
2023/10/01 11:51:41;;;;;;;3.03;1.52;;;;;;;19.23;46.53;100951.78;5092779;28;20655;-69
2023/10/01 11:54:11;;;;;;;4.07;1.60;;;;;;;19.20;46.43;100945.78;5097369;28;20201;-69
2023/10/01 11:56:42;;;;;;;4.95;1.60;;;;;;;19.11;46.16;100944.34;5085842;28;20322;-71
2023/10/01 11:59:17;;;;;;;4.72;1.65;;;;;;;19.06;46.65;100956.69;5090026;28;20580;-73
2023/10/01 12:01:50;;;;;;;3.38;1.80;;;;;;;18.96;46.75;100955.25;5091559;28;20559;-72
2023/10/01 12:04:43;;;;;;;3.75;1.60;;;;;;;18.85;47.52;100957.34;5092382;28;20200;-73
2023/10/01 12:07:18;;;;;;;3.90;1.48;;;;;;;18.81;47.41;100965.31;5089481;28;20551;-73
2023/10/01 12:09:50;;;;;;;2.92;1.40;;;;;;;18.75;47.77;100965.50;5087181;28;20210;-72
2023/10/01 12:12:20;;;;;;;3.00;1.33;;;;;;;18.76;47.91;100963.72;5093255;28;20209;-71
2023/10/01 12:14:55;;;;;;;6.22;2.15;;;;;;;18.74;47.74;100962.91;5092550;28;20660;-71
2023/10/01 12:17:28;;;;;;;4.47;1.48;;;;;;;18.62;48.18;100961.50;5093283;28;20220;-73